Terminal Aerodrome Forecast
Issued by NWS

Home | Current Version | Previous Version | Text Only | Print | Product List | Glossary On
Versions: 1 2 3 4 5 6 7 8 9 10 11 12 13 14 15 16 17 18 19 20 21
000
FTUS41 KBGM 201100
TAFITH
TAF
KITH 201125Z 2012/2112 16014KT P6SM OVC015
     FM201400 18012G22KT P6SM OVC025
     FM201600 18012G24KT P6SM BKN035
     FM202300 17012KT P6SM SCT040
      TEMPO 2108/2112 OVC018=

USA.gov is the U.S. government's official web portal to all federal, state and local government web resources and services.